sensor_id;sensor_type;location;lat;lon;timestamp;pressure;altitude;pressure_sealevel;temperature;humidity
59829;BME280;45708;51.848;107.620;2024-02-15T00:02:10;94438.31;;;-25.89;63.35
59829;BME280;45708;51.848;107.620;2024-02-15T00:07:11;94453.00;;;-25.71;63.59
59829;BME280;45708;51.848;107.620;2024-02-15T00:12:12;94456.09;;;-25.57;63.51
59829;BME280;45708;51.848;107.620;2024-02-15T00:17:13;94431.13;;;-25.54;63.13
59829;BME280;45708;51.848;107.620;2024-02-15T00:22:13;94418.00;;;-25.62;63.51
59829;BME280;45708;51.848;107.620;2024-02-15T00:27:17;94427.78;;;-25.53;63.82
59829;BME280;45708;51.848;107.620;2024-02-15T00:32:18;94430.13;;;-25.44;63.26
59829;BME280;45708;51.848;107.620;2024-02-15T00:37:19;94400.91;;;-25.33;63.41
59829;BME280;45708;51.848;107.620;2024-02-15T00:42:20;94404.72;;;-25.13;63.84
59829;BME280;45708;51.848;107.620;2024-02-15T00:47:21;94373.22;;;-25.16;63.41
59829;BME280;45708;51.848;107.620;2024-02-15T00:52:22;94370.25;;;-24.93;63.55
59829;BME280;45708;51.848;107.620;2024-02-15T00:57:23;94389.75;;;-24.69;63.79
59829;BME280;45708;51.848;107.620;2024-02-15T01:02:24;94378.75;;;-24.58;63.37
59829;BME280;45708;51.848;107.620;2024-02-15T01:07:25;94372.56;;;-24.42;64.15
59829;BME280;45708;51.848;107.620;2024-02-15T01:12:26;94362.19;;;-24.24;63.83
59829;BME280;45708;51.848;107.620;2024-02-15T01:17:26;94343.81;;;-24.20;63.51
59829;BME280;45708;51.848;107.620;2024-02-15T01:22:27;94333.84;;;-24.20;63.35
59829;BME280;45708;51.848;107.620;2024-02-15T01:27:28;94332.88;;;-24.14;63.56
59829;BME280;45708;51.848;107.620;2024-02-15T01:32:29;94308.50;;;-24.05;63.63
59829;BME280;45708;51.848;107.620;2024-02-15T01:37:30;94311.09;;;-23.72;63.67
59829;BME280;45708;51.848;107.620;2024-02-15T01:42:31;94297.50;;;-23.29;64.16
59829;BME280;45708;51.848;107.620;2024-02-15T01:47:32;94268.06;;;-22.89;64.08
59829;BME280;45708;51.848;107.620;2024-02-15T01:52:33;94286.59;;;-22.66;64.19
59829;BME280;45708;51.848;107.620;2024-02-15T01:57:36;94279.13;;;-22.68;63.88
59829;BME280;45708;51.848;107.620;2024-02-15T02:02:38;94264.78;;;-22.61;64.12
59829;BME280;45708;51.848;107.620;2024-02-15T02:07:40;94265.94;;;-22.45;64.19
59829;BME280;45708;51.848;107.620;2024-02-15T02:12:40;94237.81;;;-22.25;64.48
59829;BME280;45708;51.848;107.620;2024-02-15T02:17:41;94244.81;;;-22.08;64.18
59829;BME280;45708;51.848;107.620;2024-02-15T02:22:46;94156.13;;;-22.28;64.48
59829;BME280;45708;51.848;107.620;2024-02-15T02:27:48;94211.38;;;-21.81;64.38
59829;BME280;45708;51.848;107.620;2024-02-15T02:32:50;94175.00;;;-21.68;64.47
59829;BME280;45708;51.848;107.620;2024-02-15T02:37:51;94178.28;;;-21.42;64.46
59829;BME280;45708;51.848;107.620;2024-02-15T02:42:56;94169.56;;;-21.09;64.22
59829;BME280;45708;51.848;107.620;2024-02-15T02:47:57;94182.22;;;-20.88;64.69
59829;BME280;45708;51.848;107.620;2024-02-15T02:52:58;94170.97;;;-20.78;64.71
59829;BME280;45708;51.848;107.620;2024-02-15T02:57:59;94172.81;;;-20.60;65.05
59829;BME280;45708;51.848;107.620;2024-02-15T03:03:00;94163.09;;;-20.47;64.34
59829;BME280;45708;51.848;107.620;2024-02-15T03:08:01;94168.31;;;-20.32;64.49
59829;BME280;45708;51.848;107.620;2024-02-15T03:13:02;94146.00;;;-20.17;64.54
59829;BME280;45708;51.848;107.620;2024-02-15T03:18:03;94146.56;;;-20.11;64.90
59829;BME280;45708;51.848;107.620;2024-02-15T03:23:04;94129.00;;;-19.90;64.62
59829;BME280;45708;51.848;107.620;2024-02-15T03:28:05;94133.44;;;-19.56;64.67
59829;BME280;45708;51.848;107.620;2024-02-15T03:33:05;94048.75;;;-19.75;64.58
59829;BME280;45708;51.848;107.620;2024-02-15T03:38:06;94124.34;;;-19.40;64.50
59829;BME280;45708;51.848;107.620;2024-02-15T03:43:08;94108.06;;;-19.13;64.37
59829;BME280;45708;51.848;107.620;2024-02-15T03:48:09;94075.41;;;-19.14;64.63
59829;BME280;45708;51.848;107.620;2024-02-15T03:53:10;94074.00;;;-19.01;64.82
59829;BME280;45708;51.848;107.620;2024-02-15T03:58:10;94063.03;;;-19.00;64.30
59829;BME280;45708;51.848;107.620;2024-02-15T04:03:11;94062.25;;;-18.83;64.41
59829;BME280;45708;51.848;107.620;2024-02-15T04:08:12;94041.69;;;-18.57;64.02
59829;BME280;45708;51.848;107.620;2024-02-15T04:13:13;94039.19;;;-18.39;64.94
59829;BME280;45708;51.848;107.620;2024-02-15T04:18:14;94030.78;;;-18.05;64.67
59829;BME280;45708;51.848;107.620;2024-02-15T04:23:14;94020.59;;;-17.69;64.35
59829;BME280;45708;51.848;107.620;2024-02-15T04:28:15;94022.31;;;-17.23;64.52
59829;BME280;45708;51.848;107.620;2024-02-15T04:33:16;93992.94;;;-17.24;64.65
59829;BME280;45708;51.848;107.620;2024-02-15T04:38:17;93982.00;;;-16.93;64.23
59829;BME280;45708;51.848;107.620;2024-02-15T04:43:18;93989.34;;;-16.88;64.37
59829;BME280;45708;51.848;107.620;2024-02-15T04:48:20;93969.75;;;-16.69;64.36
59829;BME280;45708;51.848;107.620;2024-02-15T04:53:21;93948.72;;;-16.69;64.03
59829;BME280;45708;51.848;107.620;2024-02-15T04:58:21;93959.03;;;-16.58;63.71
59829;BME280;45708;51.848;107.620;2024-02-15T05:03:23;93932.06;;;-16.57;64.11
59829;BME280;45708;51.848;107.620;2024-02-15T05:08:23;93933.41;;;-16.66;64.12
59829;BME280;45708;51.848;107.620;2024-02-15T05:13:24;93937.03;;;-16.86;63.94
59829;BME280;45708;51.848;107.620;2024-02-15T05:18:25;93920.84;;;-16.98;63.97
59829;BME280;45708;51.848;107.620;2024-02-15T05:23:26;93915.22;;;-17.03;64.46
59829;BME280;45708;51.848;107.620;2024-02-15T05:28:27;93898.97;;;-17.29;64.46
59829;BME280;45708;51.848;107.620;2024-02-15T05:33:28;93876.09;;;-17.26;64.43
59829;BME280;45708;51.848;107.620;2024-02-15T05:38:28;93855.59;;;-17.05;64.25
59829;BME280;45708;51.848;107.620;2024-02-15T05:43:29;93877.13;;;-16.84;64.80
59829;BME280;45708;51.848;107.620;2024-02-15T05:48:30;93866.44;;;-16.59;64.97
59829;BME280;45708;51.848;107.620;2024-02-15T05:53:32;93879.16;;;-16.46;64.46
59829;BME280;45708;51.848;107.620;2024-02-15T05:58:34;93861.88;;;-16.38;64.53
59829;BME280;45708;51.848;107.620;2024-02-15T06:03:35;93846.16;;;-16.29;64.89
59829;BME280;45708;51.848;107.620;2024-02-15T06:08:36;93845.97;;;-16.26;64.72
59829;BME280;45708;51.848;107.620;2024-02-15T06:13:37;93819.06;;;-16.27;64.56
59829;BME280;45708;51.848;107.620;2024-02-15T06:18:38;93799.72;;;-16.14;64.99
59829;BME280;45708;51.848;107.620;2024-02-15T06:23:39;93784.38;;;-16.11;65.20
59829;BME280;45708;51.848;107.620;2024-02-15T06:28:39;93795.56;;;-16.01;64.44
59829;BME280;45708;51.848;107.620;2024-02-15T06:33:42;93773.44;;;-16.11;64.82
59829;BME280;45708;51.848;107.620;2024-02-15T06:38:42;93783.00;;;-16.02;65.10
59829;BME280;45708;51.848;107.620;2024-02-15T06:43:43;93791.75;;;-15.93;64.47
59829;BME280;45708;51.848;107.620;2024-02-15T06:48:44;93766.53;;;-15.81;65.14
59829;BME280;45708;51.848;107.620;2024-02-15T06:53:45;93784.31;;;-15.82;64.65
59829;BME280;45708;51.848;107.620;2024-02-15T06:58:46;93779.63;;;-15.88;65.85
59829;BME280;45708;51.848;107.620;2024-02-15T07:03:46;93768.50;;;-15.86;65.87
59829;BME280;45708;51.848;107.620;2024-02-15T07:08:47;93771.19;;;-15.75;65.32
59829;BME280;45708;51.848;107.620;2024-02-15T07:13:48;93766.75;;;-15.71;64.78
59829;BME280;45708;51.848;107.620;2024-02-15T07:18:49;93780.94;;;-15.69;65.79
59829;BME280;45708;51.848;107.620;2024-02-15T07:23:50;93745.31;;;-15.53;64.50
59829;BME280;45708;51.848;107.620;2024-02-15T07:28:54;93744.72;;;-15.44;65.99
59829;BME280;45708;51.848;107.620;2024-02-15T07:33:55;93744.72;;;-15.44;64.38
59829;BME280;45708;51.848;107.620;2024-02-15T07:38:56;93734.25;;;-15.38;65.50
59829;BME280;45708;51.848;107.620;2024-02-15T07:43:57;93722.06;;;-15.45;65.70
59829;BME280;45708;51.848;107.620;2024-02-15T07:48:58;93717.59;;;-15.42;65.90
59829;BME280;45708;51.848;107.620;2024-02-15T07:53:59;93712.16;;;-15.35;65.38
59829;BME280;45708;51.848;107.620;2024-02-15T07:58:59;93705.47;;;-15.24;65.65
59829;BME280;45708;51.848;107.620;2024-02-15T08:04:00;93700.03;;;-15.18;64.91
59829;BME280;45708;51.848;107.620;2024-02-15T08:09:01;93696.69;;;-15.18;66.51
59829;BME280;45708;51.848;107.620;2024-02-15T08:14:02;93697.28;;;-15.27;65.82
59829;BME280;45708;51.848;107.620;2024-02-15T08:19:03;93686.63;;;-15.32;66.18
59829;BME280;45708;51.848;107.620;2024-02-15T08:24:04;93675.09;;;-15.37;65.26
59829;BME280;45708;51.848;107.620;2024-02-15T08:29:05;93670.41;;;-15.43;66.13
59829;BME280;45708;51.848;107.620;2024-02-15T08:34:06;93670.63;;;-15.46;66.34
59829;BME280;45708;51.848;107.620;2024-02-15T08:39:07;93672.44;;;-15.48;66.84
59829;BME280;45708;51.848;107.620;2024-02-15T08:44:08;93654.09;;;-15.51;66.37
59829;BME280;45708;51.848;107.620;2024-02-15T08:49:09;93649.66;;;-15.48;67.10
59829;BME280;45708;51.848;107.620;2024-02-15T08:54:09;93646.50;;;-15.51;65.84
59829;BME280;45708;51.848;107.620;2024-02-15T08:59:10;93637.72;;;-15.46;66.13
59829;BME280;45708;51.848;107.620;2024-02-15T09:04:11;93608.84;;;-15.56;65.84
59829;BME280;45708;51.848;107.620;2024-02-15T09:09:12;93626.66;;;-15.45;65.99
59829;BME280;45708;51.848;107.620;2024-02-15T09:14:13;93621.81;;;-15.48;66.43
59829;BME280;45708;51.848;107.620;2024-02-15T09:19:13;93526.94;;;-16.06;66.07
59829;BME280;45708;51.848;107.620;2024-02-15T09:24:14;93598.13;;;-15.72;66.41
59829;BME280;45708;51.848;107.620;2024-02-15T09:29:15;93591.88;;;-15.79;66.66
59829;BME280;45708;51.848;107.620;2024-02-15T09:34:16;93564.78;;;-16.04;67.18
59829;BME280;45708;51.848;107.620;2024-02-15T09:39:17;93575.31;;;-16.10;67.08
59829;BME280;45708;51.848;107.620;2024-02-15T09:44:18;93557.56;;;-16.23;66.78
59829;BME280;45708;51.848;107.620;2024-02-15T09:49:18;93539.56;;;-16.31;67.10
59829;BME280;45708;51.848;107.620;2024-02-15T09:54:20;93531.84;;;-16.42;66.82
59829;BME280;45708;51.848;107.620;2024-02-15T09:59:22;93529.41;;;-16.44;66.74
59829;BME280;45708;51.848;107.620;2024-02-15T10:04:22;93540.53;;;-16.46;67.41
59829;BME280;45708;51.848;107.620;2024-02-15T10:09:27;93519.66;;;-16.63;67.34
59829;BME280;45708;51.848;107.620;2024-02-15T10:14:29;93515.41;;;-16.75;67.17
59829;BME280;45708;51.848;107.620;2024-02-15T10:19:30;93515.34;;;-16.87;66.74
59829;BME280;45708;51.848;107.620;2024-02-15T10:24:31;93523.03;;;-16.89;67.30
59829;BME280;45708;51.848;107.620;2024-02-15T10:29:34;93518.19;;;-17.06;67.29
59829;BME280;45708;51.848;107.620;2024-02-15T10:34:43;93526.72;;;-17.21;67.38
59829;BME280;45708;51.848;107.620;2024-02-15T10:39:44;93512.13;;;-17.31;67.36
59829;BME280;45708;51.848;107.620;2024-02-15T10:44:45;93507.97;;;-17.32;67.60
59829;BME280;45708;51.848;107.620;2024-02-15T10:49:46;93504.88;;;-17.23;67.58
59829;BME280;45708;51.848;107.620;2024-02-15T10:55:09;93501.72;;;-17.12;67.74
59829;BME280;45708;51.848;107.620;2024-02-15T11:00:12;93496.16;;;-16.90;68.03
59829;BME280;45708;51.848;107.620;2024-02-15T11:05:14;93504.84;;;-16.94;67.51
59829;BME280;45708;51.848;107.620;2024-02-15T11:10:17;93494.25;;;-17.13;67.49
59829;BME280;45708;51.848;107.620;2024-02-15T11:25:38;93488.19;;;-17.11;67.66
59829;BME280;45708;51.848;107.620;2024-02-15T11:30:39;93447.56;;;-17.20;67.93
59829;BME280;45708;51.848;107.620;2024-02-15T11:41:05;93455.69;;;-17.03;67.59
59829;BME280;45708;51.848;107.620;2024-02-15T11:46:06;93454.13;;;-16.91;67.58
59829;BME280;45708;51.848;107.620;2024-02-15T11:51:08;93441.19;;;-16.99;66.82
59829;BME280;45708;51.848;107.620;2024-02-15T11:56:09;93414.47;;;-17.16;66.75
59829;BME280;45708;51.848;107.620;2024-02-15T12:01:11;93415.09;;;-17.12;67.36
59829;BME280;45708;51.848;107.620;2024-02-15T12:06:17;93404.13;;;-17.26;67.88
59829;BME280;45708;51.848;107.620;2024-02-15T12:11:18;93382.31;;;-17.27;67.71
59829;BME280;45708;51.848;107.620;2024-02-15T12:16:18;93372.81;;;-17.36;68.06
59829;BME280;45708;51.848;107.620;2024-02-15T12:21:24;93370.53;;;-17.53;67.71
59829;BME280;45708;51.848;107.620;2024-02-15T12:26:26;93358.28;;;-17.86;67.57
59829;BME280;45708;51.848;107.620;2024-02-15T12:31:28;93366.25;;;-18.06;67.47
59829;BME280;45708;51.848;107.620;2024-02-15T12:36:29;93353.78;;;-18.36;67.52
59829;BME280;45708;51.848;107.620;2024-02-15T12:41:29;93339.13;;;-18.58;67.56
59829;BME280;45708;51.848;107.620;2024-02-15T12:46:30;93329.41;;;-18.64;67.47
59829;BME280;45708;51.848;107.620;2024-02-15T12:51:31;93328.25;;;-18.59;67.23
59829;BME280;45708;51.848;107.620;2024-02-15T12:56:32;93313.19;;;-18.46;66.94
59829;BME280;45708;51.848;107.620;2024-02-15T13:01:33;93295.84;;;-18.51;66.96
59829;BME280;45708;51.848;107.620;2024-02-15T13:06:33;93306.91;;;-18.53;67.35
59829;BME280;45708;51.848;107.620;2024-02-15T13:11:34;93311.97;;;-18.67;67.94
59829;BME280;45708;51.848;107.620;2024-02-15T13:16:35;93310.72;;;-18.89;67.63
59829;BME280;45708;51.848;107.620;2024-02-15T13:21:37;93298.38;;;-19.08;67.54
59829;BME280;45708;51.848;107.620;2024-02-15T13:26:38;93296.00;;;-19.25;67.73
59829;BME280;45708;51.848;107.620;2024-02-15T13:31:39;93279.81;;;-19.49;67.10
59829;BME280;45708;51.848;107.620;2024-02-15T13:36:41;93288.44;;;-19.53;67.61
59829;BME280;45708;51.848;107.620;2024-02-15T13:41:42;93281.50;;;-19.64;67.74
59829;BME280;45708;51.848;107.620;2024-02-15T13:46:43;93271.53;;;-19.65;67.42
59829;BME280;45708;51.848;107.620;2024-02-15T13:51:44;93264.47;;;-19.59;67.46
59829;BME280;45708;51.848;107.620;2024-02-15T13:56:44;93249.44;;;-19.46;67.94
59829;BME280;45708;51.848;107.620;2024-02-15T14:01:45;93201.84;;;-19.63;67.96
59829;BME280;45708;51.848;107.620;2024-02-15T14:06:47;93230.78;;;-19.42;68.17
59829;BME280;45708;51.848;107.620;2024-02-15T14:11:48;93233.22;;;-19.41;67.43
59829;BME280;45708;51.848;107.620;2024-02-15T14:16:49;93235.75;;;-19.55;67.90
59829;BME280;45708;51.848;107.620;2024-02-15T14:21:51;93178.97;;;-20.03;67.69
59829;BME280;45708;51.848;107.620;2024-02-15T14:26:52;93237.94;;;-19.64;67.82
59829;BME280;45708;51.848;107.620;2024-02-15T14:31:53;93216.50;;;-19.70;67.19
59829;BME280;45708;51.848;107.620;2024-02-15T14:36:54;93184.00;;;-19.73;67.31
59829;BME280;45708;51.848;107.620;2024-02-15T14:41:55;93171.59;;;-19.76;67.45
59829;BME280;45708;51.848;107.620;2024-02-15T14:46:56;93164.66;;;-19.87;67.50
59829;BME280;45708;51.848;107.620;2024-02-15T14:51:57;93153.28;;;-19.78;67.93
59829;BME280;45708;51.848;107.620;2024-02-15T14:56:57;93166.66;;;-19.63;68.00
59829;BME280;45708;51.848;107.620;2024-02-15T15:01:58;93139.38;;;-19.69;68.07
59829;BME280;45708;51.848;107.620;2024-02-15T15:06:59;93138.13;;;-19.77;68.43
59829;BME280;45708;51.848;107.620;2024-02-15T15:12:00;93131.28;;;-19.89;68.22
59829;BME280;45708;51.848;107.620;2024-02-15T15:17:01;93114.03;;;-20.09;68.42
59829;BME280;45708;51.848;107.620;2024-02-15T15:22:01;93100.00;;;-20.27;68.27
59829;BME280;45708;51.848;107.620;2024-02-15T15:27:02;93094.91;;;-20.40;68.11
59829;BME280;45708;51.848;107.620;2024-02-15T15:32:03;93084.25;;;-20.59;68.10
59829;BME280;45708;51.848;107.620;2024-02-15T15:37:04;93089.75;;;-20.53;68.07
59829;BME280;45708;51.848;107.620;2024-02-15T15:42:06;93072.25;;;-20.54;68.13
59829;BME280;45708;51.848;107.620;2024-02-15T15:47:06;93057.69;;;-20.64;68.23
59829;BME280;45708;51.848;107.620;2024-02-15T15:52:07;93071.94;;;-20.64;68.31
59829;BME280;45708;51.848;107.620;2024-02-15T15:57:08;93059.56;;;-20.81;67.98
59829;BME280;45708;51.848;107.620;2024-02-15T16:02:09;93070.53;;;-20.84;68.24
59829;BME280;45708;51.848;107.620;2024-02-15T16:07:10;93051.84;;;-20.78;68.10
59829;BME280;45708;51.848;107.620;2024-02-15T16:12:12;93052.75;;;-20.79;68.55
59829;BME280;45708;51.848;107.620;2024-02-15T16:17:13;93042.00;;;-20.81;68.16
59829;BME280;45708;51.848;107.620;2024-02-15T16:22:14;93007.78;;;-20.98;68.65
59829;BME280;45708;51.848;107.620;2024-02-15T16:27:15;93021.34;;;-20.86;68.42
59829;BME280;45708;51.848;107.620;2024-02-15T16:32:16;93022.25;;;-20.87;68.35
59829;BME280;45708;51.848;107.620;2024-02-15T16:37:16;93014.88;;;-20.90;68.32
59829;BME280;45708;51.848;107.620;2024-02-15T16:42:17;93006.31;;;-21.02;68.50
59829;BME280;45708;51.848;107.620;2024-02-15T16:47:18;92999.22;;;-21.10;68.57
59829;BME280;45708;51.848;107.620;2024-02-15T16:52:20;92982.75;;;-21.14;68.26
59829;BME280;45708;51.848;107.620;2024-02-15T16:57:21;92981.25;;;-21.02;68.60
59829;BME280;45708;51.848;107.620;2024-02-15T17:02:22;92981.72;;;-20.96;68.34
59829;BME280;45708;51.848;107.620;2024-02-15T17:07:22;92966.56;;;-21.08;68.50
59829;BME280;45708;51.848;107.620;2024-02-15T17:12:23;92974.16;;;-21.10;68.13
59829;BME280;45708;51.848;107.620;2024-02-15T17:17:24;92959.50;;;-21.02;68.06
59829;BME280;45708;51.848;107.620;2024-02-15T17:22:25;92960.84;;;-20.96;68.10
59829;BME280;45708;51.848;107.620;2024-02-15T17:27:25;92956.13;;;-20.86;68.22
59829;BME280;45708;51.848;107.620;2024-02-15T17:32:26;92860.59;;;-21.40;68.10
59829;BME280;45708;51.848;107.620;2024-02-15T17:37:27;92933.63;;;-20.88;68.24
59829;BME280;45708;51.848;107.620;2024-02-15T17:42:28;92914.56;;;-20.76;68.34
59829;BME280;45708;51.848;107.620;2024-02-15T17:47:29;92902.38;;;-20.68;68.10
59829;BME280;45708;51.848;107.620;2024-02-15T17:52:30;92894.94;;;-20.70;68.34
59829;BME280;45708;51.848;107.620;2024-02-15T17:57:32;92926.22;;;-20.47;68.40
59829;BME280;45708;51.848;107.620;2024-02-15T18:02:33;92912.38;;;-20.25;68.59
59829;BME280;45708;51.848;107.620;2024-02-15T18:07:34;92899.38;;;-20.18;68.05
59829;BME280;45708;51.848;107.620;2024-02-15T18:12:37;92889.06;;;-20.27;67.94
59829;BME280;45708;51.848;107.620;2024-02-15T18:17:38;92866.13;;;-20.36;67.97
59829;BME280;45708;51.848;107.620;2024-02-15T18:22:39;92866.53;;;-20.42;68.00
59829;BME280;45708;51.848;107.620;2024-02-15T18:27:42;92869.25;;;-20.59;67.91
59829;BME280;45708;51.848;107.620;2024-02-15T18:32:43;92896.28;;;-20.64;67.98
59829;BME280;45708;51.848;107.620;2024-02-15T18:37:44;92882.69;;;-20.60;68.29
59829;BME280;45708;51.848;107.620;2024-02-15T18:42:45;92857.75;;;-20.63;68.35
59829;BME280;45708;51.848;107.620;2024-02-15T18:47:46;92866.16;;;-20.64;68.19
59829;BME280;45708;51.848;107.620;2024-02-15T18:52:46;92860.63;;;-20.83;68.32
59829;BME280;45708;51.848;107.620;2024-02-15T18:57:47;92869.94;;;-20.71;68.13
59829;BME280;45708;51.848;107.620;2024-02-15T19:02:48;92880.69;;;-20.55;68.43
59829;BME280;45708;51.848;107.620;2024-02-15T19:07:50;92867.88;;;-20.50;68.29
59829;BME280;45708;51.848;107.620;2024-02-15T19:12:51;92879.28;;;-20.18;68.07
59829;BME280;45708;51.848;107.620;2024-02-15T19:17:52;92876.13;;;-20.07;68.34
59829;BME280;45708;51.848;107.620;2024-02-15T19:22:53;92853.38;;;-20.18;68.30
59829;BME280;45708;51.848;107.620;2024-02-15T19:27:53;92870.84;;;-20.17;68.50
59829;BME280;45708;51.848;107.620;2024-02-15T19:32:54;92855.72;;;-20.29;67.78
59829;BME280;45708;51.848;107.620;2024-02-15T19:37:55;92858.72;;;-20.10;68.46
59829;BME280;45708;51.848;107.620;2024-02-15T19:42:56;92870.56;;;-20.12;68.11
59829;BME280;45708;51.848;107.620;2024-02-15T19:47:57;92842.56;;;-20.06;67.70
59829;BME280;45708;51.848;107.620;2024-02-15T19:52:57;92835.38;;;-19.98;67.55
59829;BME280;45708;51.848;107.620;2024-02-15T19:57:58;92841.16;;;-20.10;67.81
59829;BME280;45708;51.848;107.620;2024-02-15T20:02:59;92845.78;;;-20.04;67.82
59829;BME280;45708;51.848;107.620;2024-02-15T20:08:00;92848.06;;;-19.87;67.55
59829;BME280;45708;51.848;107.620;2024-02-15T20:13:01;92814.69;;;-19.89;67.69
59829;BME280;45708;51.848;107.620;2024-02-15T20:18:02;92820.38;;;-19.73;67.81
59829;BME280;45708;51.848;107.620;2024-02-15T20:23:03;92828.66;;;-19.45;67.37
59829;BME280;45708;51.848;107.620;2024-02-15T20:28:04;92841.84;;;-19.29;67.30
59829;BME280;45708;51.848;107.620;2024-02-15T20:33:05;92840.16;;;-19.28;67.31
59829;BME280;45708;51.848;107.620;2024-02-15T20:38:05;92834.81;;;-19.24;68.00
59829;BME280;45708;51.848;107.620;2024-02-15T20:43:06;92833.91;;;-19.23;67.40
59829;BME280;45708;51.848;107.620;2024-02-15T20:48:07;92849.50;;;-19.30;67.08
59829;BME280;45708;51.848;107.620;2024-02-15T20:53:08;92840.03;;;-19.27;67.02
59829;BME280;45708;51.848;107.620;2024-02-15T20:58:09;92850.22;;;-19.28;67.95
59829;BME280;45708;51.848;107.620;2024-02-15T21:03:10;92859.00;;;-19.48;67.21
59829;BME280;45708;51.848;107.620;2024-02-15T21:08:10;92825.44;;;-19.60;67.26
59829;BME280;45708;51.848;107.620;2024-02-15T21:13:11;92843.16;;;-19.61;67.71
59829;BME280;45708;51.848;107.620;2024-02-15T21:18:12;92855.56;;;-19.73;67.60
59829;BME280;45708;51.848;107.620;2024-02-15T21:23:13;92820.78;;;-19.79;67.15
59829;BME280;45708;51.848;107.620;2024-02-15T21:28:14;92835.41;;;-19.85;67.12
59829;BME280;45708;51.848;107.620;2024-02-15T21:33:14;92838.59;;;-19.96;67.10
59829;BME280;45708;51.848;107.620;2024-02-15T21:38:15;92817.25;;;-20.03;67.51
59829;BME280;45708;51.848;107.620;2024-02-15T21:43:16;92825.34;;;-19.98;67.57
59829;BME280;45708;51.848;107.620;2024-02-15T21:48:17;92828.75;;;-19.99;67.71
59829;BME280;45708;51.848;107.620;2024-02-15T21:53:18;92838.06;;;-19.74;66.95
59829;BME280;45708;51.848;107.620;2024-02-15T21:58:19;92828.06;;;-19.61;67.83
59829;BME280;45708;51.848;107.620;2024-02-15T22:03:20;92835.72;;;-19.37;67.71
59829;BME280;45708;51.848;107.620;2024-02-15T22:08:21;92854.44;;;-19.29;66.96
59829;BME280;45708;51.848;107.620;2024-02-15T22:13:21;92865.50;;;-19.31;67.25
59829;BME280;45708;51.848;107.620;2024-02-15T22:18:22;92853.84;;;-19.20;66.77
59829;BME280;45708;51.848;107.620;2024-02-15T22:23:23;92852.25;;;-19.08;67.83
59829;BME280;45708;51.848;107.620;2024-02-15T22:28:24;92862.41;;;-19.10;67.61
59829;BME280;45708;51.848;107.620;2024-02-15T22:33:25;92861.59;;;-19.10;67.15
59829;BME280;45708;51.848;107.620;2024-02-15T22:38:26;92853.66;;;-19.17;66.66
59829;BME280;45708;51.848;107.620;2024-02-15T22:43:27;92859.47;;;-19.29;66.95
59829;BME280;45708;51.848;107.620;2024-02-15T22:48:27;92838.63;;;-19.56;66.75
59829;BME280;45708;51.848;107.620;2024-02-15T22:53:29;92846.16;;;-19.56;67.36
59829;BME280;45708;51.848;107.620;2024-02-15T22:58:29;92828.75;;;-19.59;67.56
59829;BME280;45708;51.848;107.620;2024-02-15T23:03:30;92815.16;;;-19.44;67.13
59829;BME280;45708;51.848;107.620;2024-02-15T23:08:32;92821.44;;;-19.37;66.73
59829;BME280;45708;51.848;107.620;2024-02-15T23:13:33;92819.41;;;-19.57;67.62
59829;BME280;45708;51.848;107.620;2024-02-15T23:18:33;92815.34;;;-19.73;66.82
59829;BME280;45708;51.848;107.620;2024-02-15T23:23:35;92831.38;;;-19.88;66.56
59829;BME280;45708;51.848;107.620;2024-02-15T23:28:35;92822.66;;;-20.36;67.15
59829;BME280;45708;51.848;107.620;2024-02-15T23:33:36;92843.50;;;-20.48;66.68
59829;BME280;45708;51.848;107.620;2024-02-15T23:38:37;92825.31;;;-20.66;66.89
59829;BME280;45708;51.848;107.620;2024-02-15T23:43:38;92820.91;;;-20.48;67.22
59829;BME280;45708;51.848;107.620;2024-02-15T23:48:39;92827.56;;;-20.35;67.31
59829;BME280;45708;51.848;107.620;2024-02-15T23:53:41;92859.44;;;-20.08;67.13
59829;BME280;45708;51.848;107.620;2024-02-15T23:58:42;92858.00;;;-19.98;67.15
